Time;durP1;ratioP1;P1;durP2;ratioP2;P2;SDS_P1;SDS_P2;PMS_P1;PMS_P2;Temp;Humidity;BMP_temperature;BMP_pressure;BME280_temperature;BME280_humidity;BME280_pressure;Samples;Min_cycle;Max_cycle;Signal;HPM_P1;HPM_P2
2022/07/12 00:00:34;;;;;;;7.10;4.78;;;;;;;;;;5026209;28;20118;-51
2022/07/12 00:03:00;;;;;;;8.38;4.47;;;;;;;;;;5022857;28;20079;-53
2022/07/12 00:05:25;;;;;;;6.35;4.65;;;;;;;;;;5030834;28;20032;-52
2022/07/12 00:07:50;;;;;;;5.28;4.25;;;;;;;;;;5029184;28;20049;-53
2022/07/12 00:10:16;;;;;;;7.25;5.05;;;;;;;;;;5032602;28;20475;-53
2022/07/12 00:12:41;;;;;;;6.05;4.65;;;;;;;;;;5025775;28;20037;-52
2022/07/12 00:15:07;;;;;;;7.85;5.15;;;;;;;;;;5032772;28;20060;-50
2022/07/12 00:17:33;;;;;;;7.22;4.85;;;;;;;;;;5033045;28;20104;-52
2022/07/12 00:19:58;;;;;;;7.68;5.10;;;;;;;;;;5026170;28;20116;-53
2022/07/12 00:22:24;;;;;;;506.95;54.67;;;;;;;;;;5025237;28;20117;-51
2022/07/12 00:24:50;;;;;;;7.28;5.15;;;;;;;;;;5031143;28;20044;-53
2022/07/12 00:27:15;;;;;;;7.47;4.95;;;;;;;;;;5032518;28;20680;-53
2022/07/12 00:29:41;;;;;;;7.32;5.13;;;;;;;;;;5031157;28;20063;-53
2022/07/12 00:32:07;;;;;;;7.80;5.20;;;;;;;;;;5028882;28;20037;-52
2022/07/12 00:34:33;;;;;;;7.18;5.47;;;;;;;;;;5031095;28;20056;-52
2022/07/12 00:36:58;;;;;;;6.50;4.78;;;;;;;;;;5030199;28;20356;-52
2022/07/12 00:39:24;;;;;;;6.82;4.57;;;;;;;;;;5031612;28;20130;-53
2022/07/12 00:41:50;;;;;;;9.90;5.38;;;;;;;;;;5027912;28;20037;-50
2022/07/12 00:44:15;;;;;;;7.57;5.40;;;;;;;;;;5027741;28;20045;-52
2022/07/12 00:46:41;;;;;;;6.13;4.60;;;;;;;;;;5028059;28;20359;-51
2022/07/12 00:49:07;;;;;;;7.03;5.20;;;;;;;;;;5029815;28;20198;-53
2022/07/12 00:51:33;;;;;;;7.93;5.20;;;;;;;;;;5026003;28;20033;-52
2022/07/12 00:53:59;;;;;;;6.78;4.75;;;;;;;;;;5024870;28;20026;-51
2022/07/12 00:56:25;;;;;;;9.80;5.20;;;;;;;;;;5024598;28;20049;-53
2022/07/12 00:58:50;;;;;;;6.82;5.00;;;;;;;;;;5028118;28;20021;-50
2022/07/12 01:01:16;;;;;;;7.78;5.18;;;;;;;;;;5025372;28;20049;-53
2022/07/12 01:03:42;;;;;;;7.63;5.05;;;;;;;;;;5023297;28;20406;-51
2022/07/12 01:06:08;;;;;;;7.30;5.07;;;;;;;;;;5022835;28;20559;-53
2022/07/12 01:08:34;;;;;;;8.18;5.00;;;;;;;;;;5024956;28;20527;-50
2022/07/12 01:11:00;;;;;;;7.70;5.63;;;;;;;;;;5028769;28;20030;-51
2022/07/12 01:13:26;;;;;;;7.68;4.90;;;;;;;;;;5023829;28;20021;-53
2022/07/12 01:15:53;;;;;;;7.25;4.90;;;;;;;;;;5026997;28;20032;-52
2022/07/12 01:18:19;;;;;;;9.90;5.20;;;;;;;;;;5028671;28;20036;-53
2022/07/12 01:20:45;;;;;;;6.47;4.55;;;;;;;;;;5027276;28;20077;-52
2022/07/12 01:23:12;;;;;;;8.15;5.05;;;;;;;;;;5031555;28;20041;-51
2022/07/12 01:25:37;;;;;;;7.72;5.60;;;;;;;;;;5031609;28;20029;-52
2022/07/12 01:28:03;;;;;;;7.25;4.75;;;;;;;;;;5030506;28;20479;-52
2022/07/12 01:30:29;;;;;;;7.60;5.38;;;;;;;;;;5030372;28;20033;-51
2022/07/12 01:32:54;;;;;;;7.75;5.35;;;;;;;;;;5028192;28;20036;-52
2022/07/12 01:35:21;;;;;;;6.47;4.78;;;;;;;;;;5028124;28;20069;-53
2022/07/12 01:37:47;;;;;;;7.60;5.05;;;;;;;;;;5029313;28;20094;-51
2022/07/12 01:40:14;;;;;;;7.45;4.68;;;;;;;;;;5029162;28;20483;-51
2022/07/12 01:42:40;;;;;;;8.65;4.95;;;;;;;;;;5028087;28;20086;-51
2022/07/12 01:45:07;;;;;;;8.45;5.18;;;;;;;;;;5025931;28;20026;-50
2022/07/12 01:47:34;;;;;;;8.07;5.07;;;;;;;;;;5025985;28;20052;-52
2022/07/12 01:50:00;;;;;;;7.78;4.80;;;;;;;;;;5030782;28;20091;-52
2022/07/12 01:52:25;;;;;;;6.97;5.18;;;;;;;;;;5026816;28;20026;-51
2022/07/12 01:54:53;;;;;;;7.32;5.03;;;;;;;;;;5028447;28;20029;-52
2022/07/12 01:57:19;;;;;;;7.88;4.75;;;;;;;;;;5026714;28;20029;-52
2022/07/12 01:59:45;;;;;;;7.07;4.80;;;;;;;;;;5027023;28;20040;-50
2022/07/12 02:02:10;;;;;;;9.13;4.82;;;;;;;;;;5027549;28;20033;-50
2022/07/12 02:04:36;;;;;;;7.70;5.13;;;;;;;;;;5025546;28;20027;-50
2022/07/12 02:07:03;;;;;;;9.43;5.25;;;;;;;;;;5024299;28;20064;-52
2022/07/12 02:09:28;;;;;;;6.30;4.70;;;;;;;;;;5023869;28;20065;-53
2022/07/12 02:11:54;;;;;;;10.63;5.75;;;;;;;;;;5023132;28;20028;-52
2022/07/12 02:14:20;;;;;;;7.75;4.72;;;;;;;;;;5028563;28;20031;-51
2022/07/12 02:16:46;;;;;;;8.20;5.18;;;;;;;;;;5019582;28;20360;-52
2022/07/12 02:19:13;;;;;;;6.90;4.72;;;;;;;;;;5018607;28;20025;-50
2022/07/12 02:21:38;;;;;;;8.63;5.30;;;;;;;;;;5028369;28;20483;-52
2022/07/12 02:24:04;;;;;;;6.80;5.30;;;;;;;;;;5030481;28;20044;-51
2022/07/12 02:26:35;;;;;;;8.07;5.95;;;;;;;;;;5029924;28;20029;-50
2022/07/12 02:29:02;;;;;;;7.07;5.00;;;;;;;;;;5031564;28;20072;-50
2022/07/12 02:31:27;;;;;;;7.15;4.93;;;;;;;;;;5026548;28;20029;-51
2022/07/12 02:33:53;;;;;;;8.38;5.15;;;;;;;;;;5029067;28;20483;-50
2022/07/12 02:36:18;;;;;;;10.23;5.43;;;;;;;;;;5026555;28;20037;-52
2022/07/12 02:38:43;;;;;;;7.47;4.78;;;;;;;;;;5027922;28;20040;-52
2022/07/12 02:41:09;;;;;;;9.65;5.25;;;;;;;;;;5026250;28;20029;-50
2022/07/12 02:43:34;;;;;;;7.88;5.05;;;;;;;;;;5029770;28;20449;-50
2022/07/12 02:46:07;;;;;;;9.68;5.63;;;;;;;;;;5023498;28;20260;-52
2022/07/12 02:48:32;;;;;;;8.02;5.25;;;;;;;;;;5025522;28;20512;-52
2022/07/12 02:51:02;;;;;;;7.93;5.20;;;;;;;;;;5026517;28;20179;-52
2022/07/12 02:53:28;;;;;;;8.02;5.40;;;;;;;;;;5025778;28;20124;-52
2022/07/12 02:55:53;;;;;;;8.68;5.28;;;;;;;;;;5023251;28;20137;-49
2022/07/12 02:58:19;;;;;;;9.23;4.88;;;;;;;;;;5024568;28;20029;-53
2022/07/12 03:00:44;;;;;;;9.02;5.20;;;;;;;;;;5026937;28;20266;-50
2022/07/12 03:03:10;;;;;;;7.07;5.03;;;;;;;;;;5023950;28;20033;-52
2022/07/12 03:05:36;;;;;;;7.35;4.95;;;;;;;;;;5027576;28;20448;-50
2022/07/12 03:08:06;;;;;;;8.13;4.80;;;;;;;;;;5021356;28;20120;-52
2022/07/12 03:10:32;;;;;;;10.00;5.40;;;;;;;;;;5022864;28;20037;-52
2022/07/12 03:12:57;;;;;;;7.45;5.15;;;;;;;;;;5021157;28;20509;-52
2022/07/12 03:15:22;;;;;;;6.85;4.88;;;;;;;;;;5021308;28;20033;-51
2022/07/12 03:17:48;;;;;;;6.88;4.70;;;;;;;;;;5020818;28;20380;-50
2022/07/12 03:20:14;;;;;;;7.65;5.30;;;;;;;;;;5020199;28;20029;-52
2022/07/12 03:22:46;;;;;;;8.48;5.25;;;;;;;;;;5029792;28;20374;-52
2022/07/12 03:25:12;;;;;;;7.80;5.38;;;;;;;;;;5025340;28;20095;-50
2022/07/12 03:27:37;;;;;;;8.85;5.47;;;;;;;;;;5026321;28;20025;-50
2022/07/12 03:30:03;;;;;;;6.88;4.75;;;;;;;;;;5025864;28;20303;-51
2022/07/12 03:32:29;;;;;;;8.45;5.45;;;;;;;;;;5024698;28;21602;-51
2022/07/12 03:34:54;;;;;;;8.00;5.10;;;;;;;;;;5026222;28;20026;-49
2022/07/12 03:37:19;;;;;;;9.63;6.15;;;;;;;;;;5024702;28;20433;-49
2022/07/12 03:39:45;;;;;;;9.73;5.43;;;;;;;;;;5027517;28;20041;-52
2022/07/12 03:42:13;;;;;;;10.40;6.55;;;;;;;;;;5025159;28;20060;-50
2022/07/12 03:44:39;;;;;;;8.52;6.03;;;;;;;;;;5025694;28;20051;-50
2022/07/12 03:47:04;;;;;;;7.70;5.35;;;;;;;;;;5025703;28;20493;-52
2022/07/12 03:49:30;;;;;;;8.00;5.55;;;;;;;;;;5024722;28;20037;-50
2022/07/12 03:51:55;;;;;;;10.07;5.30;;;;;;;;;;5025326;28;20029;-51
2022/07/12 03:54:20;;;;;;;10.25;5.25;;;;;;;;;;5023323;28;20507;-52
2022/07/12 03:59:30;;;;;;;7.90;4.50;;;;;;;;;;5024287;28;20478;-51
2022/07/12 04:01:55;;;;;;;9.65;5.65;;;;;;;;;;5029195;28;20052;-52
2022/07/12 04:04:21;;;;;;;8.23;5.50;;;;;;;;;;5028389;28;20438;-52
2022/07/12 04:06:46;;;;;;;7.35;5.38;;;;;;;;;;5017858;28;20484;-52
2022/07/12 04:09:12;;;;;;;9.38;5.57;;;;;;;;;;5017874;28;20056;-50
2022/07/12 04:11:37;;;;;;;8.90;5.72;;;;;;;;;;5021847;28;20087;-52
2022/07/12 04:14:03;;;;;;;9.98;5.90;;;;;;;;;;5023224;28;20029;-50
2022/07/12 04:16:29;;;;;;;10.40;5.70;;;;;;;;;;5019256;28;21863;-52
2022/07/12 04:18:55;;;;;;;10.55;5.90;;;;;;;;;;5028296;28;20352;-51
2022/07/12 04:21:21;;;;;;;10.48;5.82;;;;;;;;;;5027286;28;20079;-50
2022/07/12 04:23:46;;;;;;;9.07;5.82;;;;;;;;;;5027270;28;20047;-51
2022/07/12 04:26:12;;;;;;;10.93;6.30;;;;;;;;;;5026814;28;20029;-52
2022/07/12 04:28:37;;;;;;;9.63;5.93;;;;;;;;;;5026208;28;20111;-52
2022/07/12 04:31:03;;;;;;;10.50;6.32;;;;;;;;;;5025745;28;20030;-52
2022/07/12 04:33:28;;;;;;;9.52;6.57;;;;;;;;;;5027348;28;20491;-52
2022/07/12 04:35:54;;;;;;;10.27;6.45;;;;;;;;;;5021406;28;20506;-51
2022/07/12 04:38:19;;;;;;;9.40;6.53;;;;;;;;;;5022003;28;20133;-51
2022/07/12 04:40:45;;;;;;;13.27;6.88;;;;;;;;;;5025349;28;20537;-50
2022/07/12 04:43:11;;;;;;;13.68;7.10;;;;;;;;;;5025247;28;20032;-51
2022/07/12 04:45:36;;;;;;;9.43;5.90;;;;;;;;;;5026609;28;20033;-56
2022/07/12 04:48:02;;;;;;;10.30;6.18;;;;;;;;;;5021787;28;20084;-56
2022/07/12 04:50:27;;;;;;;8.60;6.60;;;;;;;;;;5028423;28;20030;-56
2022/07/12 04:52:53;;;;;;;8.38;6.10;;;;;;;;;;5026303;28;20025;-56
2022/07/12 04:55:18;;;;;;;12.10;6.32;;;;;;;;;;5026625;28;20360;-56
2022/07/12 04:57:44;;;;;;;10.30;6.38;;;;;;;;;;5025294;28;20029;-56
2022/07/12 05:00:10;;;;;;;11.93;6.82;;;;;;;;;;5020671;28;20030;-57
2022/07/12 05:02:35;;;;;;;10.50;6.50;;;;;;;;;;5025874;28;20090;-57
2022/07/12 05:05:01;;;;;;;13.30;6.45;;;;;;;;;;5025782;28;20507;-57
2022/07/12 05:07:26;;;;;;;10.52;6.72;;;;;;;;;;5028935;28;20033;-57
2022/07/12 05:09:52;;;;;;;12.20;6.68;;;;;;;;;;5022925;28;20022;-57
2022/07/12 05:12:18;;;;;;;11.10;6.88;;;;;;;;;;5024248;28;20025;-56
2022/07/12 05:14:43;;;;;;;11.10;6.70;;;;;;;;;;5031634;28;20104;-57
2022/07/12 05:17:09;;;;;;;12.68;6.93;;;;;;;;;;5024238;28;20110;-57
2022/07/12 05:19:36;;;;;;;10.00;7.30;;;;;;;;;;5031246;28;20040;-57
2022/07/12 05:22:02;;;;;;;13.00;7.20;;;;;;;;;;5030072;28;20025;-57
2022/07/12 05:24:28;;;;;;;12.35;7.30;;;;;;;;;;5031339;28;20048;-58
2022/07/12 05:26:53;;;;;;;12.38;7.93;;;;;;;;;;5030287;28;20025;-57
2022/07/12 05:29:19;;;;;;;11.25;6.93;;;;;;;;;;5029016;28;20029;-57
2022/07/12 05:31:44;;;;;;;11.45;6.82;;;;;;;;;;5029281;28;20438;-57
2022/07/12 05:34:09;;;;;;;9.82;6.60;;;;;;;;;;5031702;28;20025;-57
2022/07/12 05:36:35;;;;;;;11.73;7.50;;;;;;;;;;5029095;28;20028;-57
2022/07/12 05:39:00;;;;;;;11.35;6.90;;;;;;;;;;5025487;28;20557;-57
2022/07/12 05:41:26;;;;;;;11.00;7.28;;;;;;;;;;5025457;28;20022;-57
2022/07/12 05:43:52;;;;;;;12.63;8.20;;;;;;;;;;5027245;28;20028;-57
2022/07/12 05:46:17;;;;;;;10.45;7.50;;;;;;;;;;5029036;28;20245;-57
2022/07/12 05:48:42;;;;;;;9.95;7.07;;;;;;;;;;5025766;28;20079;-57
2022/07/12 05:53:52;;;;;;;11.30;6.97;;;;;;;;;;5027706;28;20095;-57
2022/07/12 05:56:17;;;;;;;12.27;7.95;;;;;;;;;;5030171;28;20483;-57
2022/07/12 05:58:42;;;;;;;9.55;7.13;;;;;;;;;;5026773;28;20025;-57
2022/07/12 06:01:08;;;;;;;14.68;8.18;;;;;;;;;;5024700;28;20029;-52
2022/07/12 06:03:33;;;;;;;11.77;7.93;;;;;;;;;;5025044;28;20075;-57
2022/07/12 06:05:59;;;;;;;12.88;7.93;;;;;;;;;;5024695;28;20029;-56
2022/07/12 06:08:25;;;;;;;17.00;9.30;;;;;;;;;;5022830;28;20067;-57
2022/07/12 06:10:50;;;;;;;13.27;8.93;;;;;;;;;;5020251;28;20065;-57
2022/07/12 06:13:16;;;;;;;14.77;9.05;;;;;;;;;;5027849;28;20048;-57
2022/07/12 06:15:41;;;;;;;13.13;8.32;;;;;;;;;;5028771;28;20040;-57
2022/07/12 06:18:06;;;;;;;13.40;8.30;;;;;;;;;;5030044;28;20465;-57
2022/07/12 06:20:32;;;;;;;15.10;8.18;;;;;;;;;;5027814;28;20048;-57
2022/07/12 06:22:58;;;;;;;13.00;8.20;;;;;;;;;;5029911;28;20040;-57
2022/07/12 06:25:24;;;;;;;13.10;7.85;;;;;;;;;;5027860;28;20116;-57
2022/07/12 06:27:50;;;;;;;13.40;7.55;;;;;;;;;;5028235;28;20029;-57
2022/07/12 06:30:20;;;;;;;12.65;8.32;;;;;;;;;;5027065;28;20400;-57
2022/07/12 06:32:46;;;;;;;11.93;8.10;;;;;;;;;;5026889;28;20032;-56
2022/07/12 06:35:12;;;;;;;10.00;7.20;;;;;;;;;;5029204;28;20119;-56
2022/07/12 06:37:38;;;;;;;12.02;7.38;;;;;;;;;;5027402;28;20059;-57
2022/07/12 06:40:04;;;;;;;10.50;7.43;;;;;;;;;;5026480;28;20068;-56
2022/07/12 06:42:30;;;;;;;13.18;7.90;;;;;;;;;;5025491;28;20022;-57
2022/07/12 06:44:55;;;;;;;12.02;8.27;;;;;;;;;;5027199;28;20032;-57
2022/07/12 06:47:21;;;;;;;9.68;6.38;;;;;;;;;;5023479;28;20099;-57
2022/07/12 06:49:46;;;;;;;12.07;7.20;;;;;;;;;;5027326;28;20021;-57
2022/07/12 06:52:11;;;;;;;9.48;6.65;;;;;;;;;;5021998;28;20058;-57
2022/07/12 06:54:37;;;;;;;9.73;7.20;;;;;;;;;;5024982;28;20112;-56
2022/07/12 06:57:02;;;;;;;9.70;7.07;;;;;;;;;;5025853;28;20028;-56
2022/07/12 06:59:28;;;;;;;10.35;7.00;;;;;;;;;;5027886;28;20029;-56
2022/07/12 07:01:55;;;;;;;10.50;6.78;;;;;;;;;;5020890;28;20022;-56
2022/07/12 07:04:21;;;;;;;12.05;7.07;;;;;;;;;;5021900;28;20033;-57
2022/07/12 07:06:47;;;;;;;10.75;6.72;;;;;;;;;;5020567;28;20045;-57
2022/07/12 07:09:12;;;;;;;10.45;6.90;;;;;;;;;;5022723;28;20521;-56
2022/07/12 07:11:37;;;;;;;8.98;6.70;;;;;;;;;;5017910;28;20021;-57
2022/07/12 07:14:03;;;;;;;8.98;6.38;;;;;;;;;;5021195;28;20057;-57
2022/07/12 07:16:29;;;;;;;8.05;6.45;;;;;;;;;;5030024;28;20112;-56
2022/07/12 07:18:55;;;;;;;9.48;5.95;;;;;;;;;;5029534;28;20096;-56
2022/07/12 07:21:20;;;;;;;11.30;6.70;;;;;;;;;;5028295;28;20033;-56
2022/07/12 07:23:45;;;;;;;8.77;6.05;;;;;;;;;;5029035;28;20368;-57
2022/07/12 07:26:11;;;;;;;8.70;5.93;;;;;;;;;;5027007;28;20029;-57
2022/07/12 07:30:52;;;;;;;10.25;6.20;;;;;;;;;;5027374;28;20331;-57
2022/07/12 07:31:22;;;;;;;8.23;5.70;;;;;;;;;;5024135;28;20093;-56
2022/07/12 07:33:47;;;;;;;7.30;5.22;;;;;;;;;;5027863;28;20491;-57
2022/07/12 07:36:13;;;;;;;6.82;5.00;;;;;;;;;;5027671;28;20112;-57
2022/07/12 07:38:38;;;;;;;6.80;5.28;;;;;;;;;;5026332;28;20021;-57
2022/07/12 07:41:04;;;;;;;8.48;5.00;;;;;;;;;;5020946;28;20133;-56
2022/07/12 07:43:29;;;;;;;8.50;4.90;;;;;;;;;;5023862;28;20065;-57
2022/07/12 07:45:54;;;;;;;7.88;5.25;;;;;;;;;;5027933;28;20402;-56
2022/07/12 07:48:20;;;;;;;6.88;4.57;;;;;;;;;;5026408;28;20025;-57
2022/07/12 07:50:45;;;;;;;8.48;4.78;;;;;;;;;;5022696;28;20028;-56
2022/07/12 07:53:11;;;;;;;9.13;5.05;;;;;;;;;;5024370;28;20030;-56
2022/07/12 07:55:37;;;;;;;8.32;4.78;;;;;;;;;;5027431;28;20108;-57
2022/07/12 07:58:02;;;;;;;5.78;4.53;;;;;;;;;;5022440;28;20029;-57
2022/07/12 08:00:28;;;;;;;7.18;4.45;;;;;;;;;;5022988;28;20056;-57
2022/07/12 08:02:55;;;;;;;6.57;4.50;;;;;;;;;;5023974;28;20065;-57
2022/07/12 08:05:20;;;;;;;9.50;4.75;;;;;;;;;;5024925;28;20272;-57
2022/07/12 08:07:46;;;;;;;6.35;5.18;;;;;;;;;;5023006;28;20040;-57
2022/07/12 08:10:11;;;;;;;6.18;4.80;;;;;;;;;;5021404;28;20537;-57
2022/07/12 08:12:36;;;;;;;6.53;4.00;;;;;;;;;;5018392;28;20104;-57
2022/07/12 08:15:02;;;;;;;10.90;5.22;;;;;;;;;;5025617;28;20115;-57
2022/07/12 08:17:28;;;;;;;9.55;5.97;;;;;;;;;;5030104;28;20033;-56
2022/07/12 08:19:53;;;;;;;7.20;4.97;;;;;;;;;;5026667;28;20056;-56
2022/07/12 08:22:19;;;;;;;8.27;5.45;;;;;;;;;;5028101;28;20383;-57
2022/07/12 08:24:44;;;;;;;7.03;5.15;;;;;;;;;;5030323;28;20110;-57
2022/07/12 08:27:10;;;;;;;6.07;4.70;;;;;;;;;;5032407;28;20034;-57
2022/07/12 08:29:35;;;;;;;6.20;4.75;;;;;;;;;;5029757;28;20399;-57
2022/07/12 08:32:01;;;;;;;6.50;4.55;;;;;;;;;;5028384;28;20052;-57
2022/07/12 08:34:26;;;;;;;7.28;4.60;;;;;;;;;;5029682;28;20026;-57
2022/07/12 08:36:52;;;;;;;7.03;4.60;;;;;;;;;;5030181;28;20025;-57
2022/07/12 08:39:17;;;;;;;5.68;4.35;;;;;;;;;;5030627;28;20035;-57
2022/07/12 08:41:42;;;;;;;5.22;3.42;;;;;;;;;;5027997;28;20406;-57
2022/07/12 08:44:08;;;;;;;4.78;3.75;;;;;;;;;;5027974;28;20127;-57
2022/07/12 08:46:33;;;;;;;3.75;3.33;;;;;;;;;;5032808;28;20029;-57
2022/07/12 08:49:06;;;;;;;4.40;3.85;;;;;;;;;;5028953;28;20033;-57
2022/07/12 08:51:31;;;;;;;4.05;3.35;;;;;;;;;;5027508;28;20402;-57
2022/07/12 08:54:16;;;;;;;3.47;2.70;;;;;;;;;;5024179;28;20026;-57
2022/07/12 08:56:43;;;;;;;4.97;3.30;;;;;;;;;;5025262;28;20029;-57
2022/07/12 08:59:26;;;;;;;4.40;2.60;;;;;;;;;;5030250;28;22209;-58
2022/07/12 09:01:54;;;;;;;3.30;2.95;;;;;;;;;;5022039;28;20458;-57
2022/07/12 09:04:20;;;;;;;4.05;2.80;;;;;;;;;;5026023;28;20044;-57
2022/07/12 09:06:46;;;;;;;5.25;2.97;;;;;;;;;;5026599;28;20021;-57
2022/07/12 09:09:31;;;;;;;1999.90;999.90;;;;;;;;;;5024849;28;20029;-57
2022/07/12 09:11:57;;;;;;;1999.90;999.90;;;;;;;;;;5021528;28;20030;-57
2022/07/12 09:14:23;;;;;;;1999.90;999.90;;;;;;;;;;5033752;28;20040;-57
2022/07/12 09:17:00;;;;;;;1999.90;999.90;;;;;;;;;;5031724;28;20028;-57
2022/07/12 09:19:25;;;;;;;1999.90;999.90;;;;;;;;;;5030255;28;20515;-57
2022/07/12 09:21:53;;;;;;;1999.90;999.90;;;;;;;;;;5028865;28;20072;-57
2022/07/12 09:24:23;;;;;;;388.55;100.25;;;;;;;;;;5029783;28;20030;-57
2022/07/12 09:26:48;;;;;;;1999.90;999.90;;;;;;;;;;5028874;28;20739;-56
2022/07/12 09:29:14;;;;;;;352.10;34.35;;;;;;;;;;5027229;28;20117;-56
2022/07/12 09:37:12;;;;;;;2.47;1.75;;;;;;;;;;5026012;28;20036;-57
2022/07/12 09:39:38;;;;;;;4.82;2.65;;;;;;;;;;5026794;28;20029;-57
2022/07/12 09:42:07;;;;;;;4.72;2.20;;;;;;;;;;5027201;28;20116;-57
2022/07/12 09:44:33;;;;;;;4.22;2.80;;;;;;;;;;5027471;28;20035;-57
2022/07/12 09:47:00;;;;;;;3.70;2.80;;;;;;;;;;5024192;28;20129;-57
2022/07/12 09:49:26;;;;;;;2.78;2.40;;;;;;;;;;5027550;28;20135;-57
2022/07/12 09:51:56;;;;;;;2.97;2.33;;;;;;;;;;5026209;28;20068;-57
2022/07/12 09:54:26;;;;;;;4.07;2.45;;;;;;;;;;5023990;28;20094;-57
2022/07/12 09:56:58;;;;;;;2.67;2.30;;;;;;;;;;5027491;28;20040;-57
2022/07/12 09:59:28;;;;;;;3.85;2.13;;;;;;;;;;5025167;28;20646;-57
2022/07/12 10:01:59;;;;;;;3.08;2.30;;;;;;;;;;5030626;28;20457;-57
2022/07/12 10:04:29;;;;;;;2.47;2.17;;;;;;;;;;5029882;28;20045;-56
2022/07/12 10:06:55;;;;;;;4.00;2.42;;;;;;;;;;5025866;28;20021;-57
2022/07/12 10:09:21;;;;;;;2.63;2.00;;;;;;;;;;5030203;28;20029;-56
2022/07/12 10:11:47;;;;;;;3.13;2.03;;;;;;;;;;5020466;28;20021;-57
2022/07/12 10:14:14;;;;;;;3.45;1.95;;;;;;;;;;5030887;28;20452;-57
2022/07/12 10:16:42;;;;;;;3.03;2.15;;;;;;;;;;5024824;28;20037;-57
2022/07/12 10:19:35;;;;;;;2.50;1.80;;;;;;;;;;5030181;28;20022;-58
2022/07/12 10:22:06;;;;;;;4.15;2.13;;;;;;;;;;5028060;28;20052;-58
2022/07/12 10:24:31;;;;;;;3.25;2.00;;;;;;;;;;5024899;28;20033;-58
2022/07/12 10:27:17;;;;;;;2.97;1.90;;;;;;;;;;5028258;28;20071;-57
2022/07/12 10:29:43;;;;;;;3.20;2.00;;;;;;;;;;5023509;28;20036;-57
2022/07/12 10:32:43;;;;;;;4.13;2.30;;;;;;;;;;5029478;28;20033;-58
2022/07/12 10:35:15;;;;;;;3.50;2.25;;;;;;;;;;5030738;28;20040;-57
2022/07/12 10:37:40;;;;;;;2.75;2.38;;;;;;;;;;5028527;28;20072;-58
2022/07/12 10:40:19;;;;;;;4.43;2.78;;;;;;;;;;5027891;28;20029;-57
2022/07/12 10:43:08;;;;;;;5.38;2.72;;;;;;;;;;5025048;28;20471;-58
2022/07/12 10:45:34;;;;;;;4.95;2.80;;;;;;;;;;5026264;28;20131;-56
2022/07/12 10:48:06;;;;;;;3.47;3.17;;;;;;;;;;5022720;28;20109;-57
2022/07/12 10:50:44;;;;;;;4.30;3.15;;;;;;;;;;5024708;28;20115;-57
2022/07/12 10:53:19;;;;;;;5.60;4.47;;;;;;;;;;5025564;28;20112;-57
2022/07/12 10:56:10;;;;;;;4.88;3.40;;;;;;;;;;5022593;28;20026;-57
2022/07/12 10:58:53;;;;;;;3.47;3.10;;;;;;;;;;5025906;28;20721;-58
2022/07/12 11:01:22;;;;;;;4.30;3.10;;;;;;;;;;5026664;28;20282;-59
2022/07/12 11:03:52;;;;;;;3.50;2.95;;;;;;;;;;5019706;28;20050;-58
2022/07/12 11:06:19;;;;;;;5.22;3.05;;;;;;;;;;5020503;28;20028;-57
2022/07/12 11:08:55;;;;;;;3.28;2.97;;;;;;;;;;5022464;28;20120;-57
2022/07/12 11:11:22;;;;;;;4.28;2.58;;;;;;;;;;5020820;28;20059;-57
2022/07/12 11:13:48;;;;;;;5.65;2.63;;;;;;;;;;5029538;28;20116;-57
2022/07/12 11:16:14;;;;;;;3.53;2.70;;;;;;;;;;5028557;28;20032;-57
2022/07/12 11:18:40;;;;;;;4.43;2.72;;;;;;;;;;5029986;28;20030;-57
2022/07/12 11:21:06;;;;;;;2.40;2.10;;;;;;;;;;5025758;28;20036;-57
2022/07/12 11:23:32;;;;;;;4.03;2.30;;;;;;;;;;5028206;28;20022;-58
2022/07/12 11:25:59;;;;;;;2.38;2.17;;;;;;;;;;5026896;28;20116;-58
2022/07/12 11:28:26;;;;;;;2.70;2.05;;;;;;;;;;5029191;28;20044;-58
2022/07/12 11:30:52;;;;;;;2.53;1.90;;;;;;;;;;5029010;28;20029;-58
2022/07/12 11:33:19;;;;;;;3.60;1.80;;;;;;;;;;5027606;28;20029;-58
2022/07/12 11:35:45;;;;;;;2.03;1.58;;;;;;;;;;5024521;28;20025;-59
2022/07/12 11:38:11;;;;;;;2.38;1.50;;;;;;;;;;5021022;28;20087;-58
2022/07/12 11:40:36;;;;;;;2.72;1.38;;;;;;;;;;5023919;28;20021;-58
2022/07/12 11:43:03;;;;;;;2.50;1.30;;;;;;;;;;5021509;28;20068;-57
2022/07/12 11:45:31;;;;;;;1.95;1.50;;;;;;;;;;5024739;28;20033;-58
2022/07/12 11:47:58;;;;;;;2.15;1.60;;;;;;;;;;5028062;28;20021;-57
2022/07/12 11:50:24;;;;;;;1.63;1.40;;;;;;;;;;5028484;28;20117;-58
2022/07/12 11:52:49;;;;;;;1.60;1.35;;;;;;;;;;5019815;28;20113;-58
2022/07/12 11:55:15;;;;;;;1.33;1.23;;;;;;;;;;5021427;28;20436;-58
2022/07/12 11:57:41;;;;;;;1.55;1.33;;;;;;;;;;5020555;28;20479;-59
2022/07/12 12:00:25;;;;;;;2.70;1.40;;;;;;;;;;5022665;28;20083;-58
2022/07/12 12:02:51;;;;;;;3.28;1.40;;;;;;;;;;5009923;28;20029;-59
2022/07/12 12:05:17;;;;;;;2.30;1.38;;;;;;;;;;5020940;28;20036;-58
2022/07/12 12:07:43;;;;;;;2.03;1.50;;;;;;;;;;5023164;28;20100;-58
2022/07/12 12:10:16;;;;;;;1.80;1.50;;;;;;;;;;5019736;28;20391;-58
2022/07/12 12:12:51;;;;;;;3.88;1.40;;;;;;;;;;5023826;28;20032;-58
2022/07/12 12:15:18;;;;;;;2.72;1.40;;;;;;;;;;5026256;28;20501;-59
2022/07/12 12:17:50;;;;;;;2.03;1.30;;;;;;;;;;5025036;28;20462;-58
2022/07/12 12:20:20;;;;;;;2.63;1.40;;;;;;;;;;5023267;28;20036;-58
2022/07/12 12:22:48;;;;;;;1.35;1.17;;;;;;;;;;5023817;28;20060;-58
2022/07/12 12:25:15;;;;;;;1.50;1.30;;;;;;;;;;5025515;28;20466;-58
2022/07/12 12:27:54;;;;;;;4.10;1.35;;;;;;;;;;5023701;28;20037;-58
2022/07/12 12:30:19;;;;;;;5.97;1.38;;;;;;;;;;5023656;28;20474;-59
2022/07/12 12:32:59;;;;;;;1.55;0.90;;;;;;;;;;5026085;28;20025;-58
2022/07/12 12:35:31;;;;;;;1.38;1.27;;;;;;;;;;5023873;28;20033;-58
2022/07/12 12:38:00;;;;;;;1.70;1.23;;;;;;;;;;5019814;28;20024;-59
2022/07/12 12:40:28;;;;;;;1.00;0.90;;;;;;;;;;5025431;28;20121;-59
2022/07/12 12:43:08;;;;;;;5.72;1.65;;;;;;;;;;5024094;28;20494;-59
2022/07/12 12:45:34;;;;;;;4.28;1.30;;;;;;;;;;5026649;28;20091;-59
2022/07/12 12:48:08;;;;;;;1.80;1.00;;;;;;;;;;5023153;28;20026;-58
2022/07/12 12:50:39;;;;;;;2.97;1.00;;;;;;;;;;5024449;28;20021;-59
2022/07/12 12:53:20;;;;;;;1.38;0.90;;;;;;;;;;5019886;28;20872;-59
2022/07/12 12:55:48;;;;;;;2.13;1.08;;;;;;;;;;5015606;28;20072;-59
2022/07/12 12:58:15;;;;;;;3.65;1.30;;;;;;;;;;5020137;28;20135;-59
2022/07/12 13:00:42;;;;;;;2.45;1.15;;;;;;;;;;5022406;28;20088;-59
2022/07/12 13:03:09;;;;;;;2.50;0.80;;;;;;;;;;5023866;28;20418;-58
2022/07/12 13:05:35;;;;;;;2.40;1.30;;;;;;;;;;5021743;28;20054;-58
2022/07/12 13:08:05;;;;;;;1.13;0.95;;;;;;;;;;5015032;28;20125;-58
2022/07/12 13:10:31;;;;;;;2.15;1.00;;;;;;;;;;5030231;28;20398;-59
2022/07/12 13:12:59;;;;;;;2.63;0.80;;;;;;;;;;5030072;28;20029;-58
2022/07/12 13:15:24;;;;;;;1.15;0.90;;;;;;;;;;5028414;28;20558;-58
2022/07/12 13:17:50;;;;;;;2.05;1.00;;;;;;;;;;5030813;28;20037;-58
2022/07/12 13:20:15;;;;;;;2.38;1.15;;;;;;;;;;5027801;28;20036;-58
2022/07/12 13:22:42;;;;;;;1.90;0.80;;;;;;;;;;5027049;28;20052;-58
2022/07/12 13:25:09;;;;;;;3.15;1.00;;;;;;;;;;5028408;28;20029;-59
2022/07/12 13:27:34;;;;;;;1.25;0.90;;;;;;;;;;5032852;28;20398;-60
2022/07/12 13:30:00;;;;;;;1.30;0.70;;;;;;;;;;5027141;28;20044;-59
2022/07/12 13:32:25;;;;;;;3.10;0.90;;;;;;;;;;5026403;28;20044;-60
2022/07/12 13:34:51;;;;;;;1.25;1.00;;;;;;;;;;5026818;28;20030;-60
2022/07/12 13:37:16;;;;;;;1.48;1.27;;;;;;;;;;5025424;28;20172;-59
2022/07/12 13:42:26;;;;;;;2.35;0.95;;;;;;;;;;5025746;28;20048;-58
2022/07/12 13:44:52;;;;;;;5.25;0.85;;;;;;;;;;5023608;28;20033;-58
2022/07/12 13:47:22;;;;;;;1.52;1.20;;;;;;;;;;5027396;28;20094;-58
2022/07/12 13:49:48;;;;;;;1.27;0.93;;;;;;;;;;5029510;28;20478;-59
2022/07/12 13:52:13;;;;;;;3.53;3.05;;;;;;;;;;5027383;28;20033;-59
2022/07/12 13:54:39;;;;;;;3.90;1.60;;;;;;;;;;5021931;28;20159;-59
2022/07/12 13:57:05;;;;;;;1.05;0.95;;;;;;;;;;5023102;28;20069;-59
2022/07/12 13:59:30;;;;;;;1.30;0.90;;;;;;;;;;5025577;28;20036;-59
2022/07/12 14:01:56;;;;;;;2.15;0.88;;;;;;;;;;5027872;28;20360;-59
2022/07/12 14:04:21;;;;;;;2.08;0.80;;;;;;;;;;5027681;28;20029;-59
2022/07/12 14:06:48;;;;;;;0.70;0.60;;;;;;;;;;5029169;28;20025;-58
2022/07/12 14:09:14;;;;;;;0.95;0.70;;;;;;;;;;5028789;28;20216;-59
2022/07/12 14:11:39;;;;;;;1.80;0.60;;;;;;;;;;5028926;28;20055;-59
2022/07/12 14:14:06;;;;;;;1.40;0.70;;;;;;;;;;5026901;28;20033;-59
2022/07/12 14:16:32;;;;;;;0.88;0.50;;;;;;;;;;5027888;28;20033;-59
2022/07/12 14:18:57;;;;;;;1.02;0.70;;;;;;;;;;5027899;28;20018;-59
2022/07/12 14:21:23;;;;;;;0.68;0.60;;;;;;;;;;5028374;28;20039;-59
2022/07/12 14:23:48;;;;;;;0.80;0.80;;;;;;;;;;5028459;28;20036;-59
2022/07/12 14:26:13;;;;;;;1.40;0.70;;;;;;;;;;5025481;28;20148;-59
2022/07/12 14:28:39;;;;;;;1.70;0.70;;;;;;;;;;5027928;28;20034;-59
2022/07/12 14:31:04;;;;;;;1.20;0.80;;;;;;;;;;5028158;28;20037;-57
2022/07/12 14:33:30;;;;;;;1.48;0.70;;;;;;;;;;5027211;28;20048;-59
2022/07/12 14:35:56;;;;;;;1.20;0.80;;;;;;;;;;5024214;28;20021;-59
2022/07/12 14:38:21;;;;;;;1.02;0.90;;;;;;;;;;5023323;28;20033;-59
2022/07/12 14:40:46;;;;;;;0.95;0.70;;;;;;;;;;5024328;28;20032;-59
2022/07/12 14:43:12;;;;;;;1.75;0.80;;;;;;;;;;5024862;28;20460;-59
2022/07/12 14:45:37;;;;;;;1.00;0.70;;;;;;;;;;5028435;28;20534;-59
2022/07/12 14:48:03;;;;;;;2.05;0.68;;;;;;;;;;5027779;28;20041;-59
2022/07/12 14:50:28;;;;;;;1.98;1.00;;;;;;;;;;5027330;28;20136;-59